Time;durP1;ratioP1;P1;durP2;ratioP2;P2;SDS_P1;SDS_P2;PMS_P1;PMS_P2;Temp;Humidity;BMP_temperature;BMP_pressure;BME280_temperature;BME280_humidity;BME280_pressure;Samples;Min_cycle;Max_cycle;Signal;HPM_P1;HPM_P2
2021/08/06 00:01:42;;;;;;;;;;;23.10;72.50;;;;;;5192306;28;19929;-84
2021/08/06 00:04:15;;;;;;;;;;;23.10;72.50;;;;;;5192808;28;19932;-84
2021/08/06 00:06:47;;;;;;;;;;;23.10;72.60;;;;;;5193742;28;19948;-86
2021/08/06 00:09:20;;;;;;;;;;;23.10;72.50;;;;;;5190540;28;19930;-85
2021/08/06 00:11:57;;;;;;;;;;;23.10;72.50;;;;;;5205755;28;19926;-83
2021/08/06 00:14:30;;;;;;;;;;;23.10;72.60;;;;;;5195655;28;19929;-83
2021/08/06 00:17:03;;;;;;;;;;;23.10;72.60;;;;;;5175865;28;20414;-83
2021/08/06 00:19:36;;;;;;;;;;;23.10;72.50;;;;;;5214666;28;19952;-84
2021/08/06 00:22:08;;;;;;;;;;;23.10;72.50;;;;;;5213347;28;19936;-83
2021/08/06 00:24:40;;;;;;;;;;;23.10;72.50;;;;;;5197144;28;19932;-83
2021/08/06 00:27:13;;;;;;;;;;;23.10;72.60;;;;;;5213808;28;19929;-84
2021/08/06 00:29:45;;;;;;;;;;;23.10;72.50;;;;;;5195198;28;19929;-84
2021/08/06 00:32:18;;;;;;;;;;;23.10;72.50;;;;;;5196438;28;19937;-82
2021/08/06 00:34:51;;;;;;;;;;;23.10;72.50;;;;;;5182819;28;19936;-83
2021/08/06 00:37:23;;;;;;;;;;;23.10;72.50;;;;;;5198185;28;19930;-83
2021/08/06 00:39:56;;;;;;;;;;;23.10;72.50;;;;;;5195695;28;20310;-82
2021/08/06 00:42:28;;;;;;;;;;;23.10;72.50;;;;;;5195540;28;19932;-83
2021/08/06 00:45:03;;;;;;;;;;;23.10;72.50;;;;;;5182974;28;19936;-82
2021/08/06 00:47:36;;;;;;;;;;;23.10;72.50;;;;;;5195788;28;19929;-83
2021/08/06 00:50:10;;;;;;;;;;;23.10;72.50;;;;;;5179150;28;19945;-83
2021/08/06 00:52:43;;;;;;;;;;;23.10;72.60;;;;;;5191655;28;19952;-82
2021/08/06 00:55:18;;;;;;;;;;;23.10;72.50;;;;;;5208982;28;19925;-83
2021/08/06 00:57:58;;;;;;;;;;;23.10;72.50;;;;;;5208266;28;20308;-83
2021/08/06 01:00:30;;;;;;;;;;;23.10;72.50;;;;;;5189751;28;19929;-83
2021/08/06 01:03:10;;;;;;;;;;;23.10;72.50;;;;;;5192586;28;19930;-82
2021/08/06 01:05:44;;;;;;;;;;;23.00;72.50;;;;;;5191475;28;19933;-84
2021/08/06 01:08:27;;;;;;;;;;;23.10;72.50;;;;;;5193979;28;19940;-83
2021/08/06 01:11:03;;;;;;;;;;;23.00;72.50;;;;;;5191006;28;19930;-83
2021/08/06 01:13:48;;;;;;;;;;;23.10;72.50;;;;;;5207919;28;19926;-84
2021/08/06 01:16:26;;;;;;;;;;;23.10;72.60;;;;;;5191119;28;19925;-83
2021/08/06 01:19:06;;;;;;;;;;;23.10;72.60;;;;;;5182436;28;19929;-83
2021/08/06 01:21:45;;;;;;;;;;;23.00;72.50;;;;;;5190414;28;19924;-83
2021/08/06 01:24:23;;;;;;;;;;;23.10;72.50;;;;;;5208017;28;19929;-82
2021/08/06 01:26:57;;;;;;;;;;;23.00;72.50;;;;;;5189604;28;20550;-84
2021/08/06 01:29:30;;;;;;;;;;;23.10;72.60;;;;;;5194563;28;19925;-82
2021/08/06 01:32:06;;;;;;;;;;;23.00;72.50;;;;;;5192420;28;19925;-84
2021/08/06 01:34:38;;;;;;;;;;;23.00;72.50;;;;;;5189547;28;19932;-83
2021/08/06 01:37:13;;;;;;;;;;;23.00;72.50;;;;;;5192453;28;19933;-82
2021/08/06 01:39:50;;;;;;;;;;;23.00;72.50;;;;;;5188560;28;19929;-83
2021/08/06 01:42:22;;;;;;;;;;;23.10;72.50;;;;;;5206706;28;19934;-83
2021/08/06 01:45:01;;;;;;;;;;;23.00;72.50;;;;;;5205352;28;19932;-83
2021/08/06 01:47:41;;;;;;;;;;;23.00;72.50;;;;;;5161041;28;19925;-83
2021/08/06 01:50:38;;;;;;;;;;;23.00;72.50;;;;;;5186210;28;19952;-83
2021/08/06 01:53:18;;;;;;;;;;;23.00;72.50;;;;;;5190907;28;19926;-83
2021/08/06 01:56:12;;;;;;;;;;;23.00;72.50;;;;;;5176504;28;19929;-83
2021/08/06 01:58:52;;;;;;;;;;;23.00;72.50;;;;;;5191149;28;19936;-82
2021/08/06 02:01:28;;;;;;;;;;;23.00;72.50;;;;;;5188372;28;20249;-83
2021/08/06 02:04:10;;;;;;;;;;;23.00;72.50;;;;;;5181830;28;19948;-83
2021/08/06 02:06:44;;;;;;;;;;;23.00;72.50;;;;;;5195162;28;19929;-83
2021/08/06 02:09:24;;;;;;;;;;;23.00;72.50;;;;;;5189580;28;20020;-83
2021/08/06 02:11:58;;;;;;;;;;;23.00;72.50;;;;;;5174927;28;19937;-83
2021/08/06 02:14:47;;;;;;;;;;;23.00;72.50;;;;;;5177960;28;19925;-83
2021/08/06 02:17:22;;;;;;;;;;;23.00;72.50;;;;;;5189675;28;19929;-83
2021/08/06 02:19:58;;;;;;;;;;;23.00;72.50;;;;;;5175403;28;20307;-84
2021/08/06 02:22:35;;;;;;;;;;;23.00;72.50;;;;;;5205533;28;20777;-83
2021/08/06 02:25:09;;;;;;;;;;;23.00;72.50;;;;;;5190338;28;19932;-83
2021/08/06 02:27:42;;;;;;;;;;;23.00;72.50;;;;;;5195079;28;19925;-83
2021/08/06 02:30:19;;;;;;;;;;;23.00;72.50;;;;;;5159494;28;19925;-83
2021/08/06 02:32:55;;;;;;;;;;;23.00;72.50;;;;;;5177388;28;20418;-82
2021/08/06 02:35:28;;;;;;;;;;;23.00;72.50;;;;;;5190941;28;19937;-84
2021/08/06 02:38:00;;;;;;;;;;;23.00;72.50;;;;;;5188845;28;19925;-83
2021/08/06 02:40:33;;;;;;;;;;;23.00;72.50;;;;;;5189660;28;19925;-83
2021/08/06 02:43:05;;;;;;;;;;;23.00;72.50;;;;;;5171424;28;19925;-83
2021/08/06 02:45:38;;;;;;;;;;;23.00;72.50;;;;;;5172897;28;20588;-82
2021/08/06 02:48:10;;;;;;;;;;;23.00;72.50;;;;;;5188601;28;20319;-82
2021/08/06 02:50:43;;;;;;;;;;;23.00;72.50;;;;;;5187376;28;19940;-83
2021/08/06 02:53:16;;;;;;;;;;;23.00;72.50;;;;;;5190476;28;19933;-83
2021/08/06 02:55:48;;;;;;;;;;;23.00;72.50;;;;;;5189714;28;19933;-84
2021/08/06 02:58:20;;;;;;;;;;;23.00;72.50;;;;;;5204501;28;19945;-84
2021/08/06 03:00:53;;;;;;;;;;;23.00;72.50;;;;;;5190443;28;19929;-83
2021/08/06 03:03:26;;;;;;;;;;;23.00;72.50;;;;;;5160953;28;19929;-83
2021/08/06 03:05:58;;;;;;;;;;;23.00;72.50;;;;;;5175382;28;19922;-82
2021/08/06 03:08:31;;;;;;;;;;;23.00;72.50;;;;;;5175220;28;19925;-83
2021/08/06 03:11:03;;;;;;;;;;;23.00;72.50;;;;;;5186331;28;19941;-84
2021/08/06 03:13:38;;;;;;;;;;;23.00;72.50;;;;;;5189730;28;19932;-83
2021/08/06 03:16:10;;;;;;;;;;;23.00;72.50;;;;;;5205587;28;19948;-83
2021/08/06 03:18:43;;;;;;;;;;;23.00;72.50;;;;;;5188880;28;19925;-83
2021/08/06 03:21:19;;;;;;;;;;;23.00;72.50;;;;;;5204185;28;19932;-82
2021/08/06 03:23:51;;;;;;;;;;;23.00;72.50;;;;;;5175500;28;19925;-83
2021/08/06 03:26:24;;;;;;;;;;;23.00;72.50;;;;;;5187044;28;20322;-83
2021/08/06 03:28:58;;;;;;;;;;;23.00;72.50;;;;;;5188034;28;20414;-83
2021/08/06 03:31:32;;;;;;;;;;;23.00;72.50;;;;;;5187280;28;19930;-83
2021/08/06 03:34:05;;;;;;;;;;;23.00;72.50;;;;;;5199699;28;19929;-84
2021/08/06 03:36:37;;;;;;;;;;;23.00;72.40;;;;;;5171377;28;19987;-83
2021/08/06 03:39:10;;;;;;;;;;;23.00;72.40;;;;;;5206601;28;19932;-82
2021/08/06 03:41:44;;;;;;;;;;;23.00;72.50;;;;;;5186215;28;19925;-83
2021/08/06 03:44:16;;;;;;;;;;;23.00;72.50;;;;;;5184800;28;20116;-83
2021/08/06 03:46:49;;;;;;;;;;;23.00;72.40;;;;;;5187000;28;19940;-83
2021/08/06 03:49:21;;;;;;;;;;;23.00;72.40;;;;;;5184306;28;19929;-84
2021/08/06 03:51:55;;;;;;;;;;;23.00;72.40;;;;;;5181530;28;19932;-83
2021/08/06 03:54:28;;;;;;;;;;;23.00;72.40;;;;;;5187116;28;19945;-84
2021/08/06 03:57:00;;;;;;;;;;;23.00;72.40;;;;;;5189398;28;19929;-84
2021/08/06 03:59:32;;;;;;;;;;;23.00;72.40;;;;;;5186546;28;19956;-84
2021/08/06 04:02:05;;;;;;;;;;;23.00;72.40;;;;;;5184940;28;19926;-82
2021/08/06 04:04:38;;;;;;;;;;;23.00;72.40;;;;;;5187170;28;20294;-83
2021/08/06 04:07:11;;;;;;;;;;;23.00;72.40;;;;;;5202813;28;19925;-83
2021/08/06 04:09:43;;;;;;;;;;;22.90;72.40;;;;;;5202549;28;19936;-83
2021/08/06 04:12:15;;;;;;;;;;;23.00;72.40;;;;;;5182753;28;19929;-84
2021/08/06 04:14:48;;;;;;;;;;;23.00;72.40;;;;;;5186329;28;19925;-83
2021/08/06 04:17:20;;;;;;;;;;;23.00;72.40;;;;;;5199885;28;19925;-82
2021/08/06 04:19:53;;;;;;;;;;;23.00;72.40;;;;;;5184124;28;19937;-83
2021/08/06 04:22:25;;;;;;;;;;;23.00;72.50;;;;;;5185644;28;19933;-82
2021/08/06 04:24:57;;;;;;;;;;;23.00;72.40;;;;;;5199335;28;19925;-83
2021/08/06 04:27:29;;;;;;;;;;;23.00;72.50;;;;;;5196532;28;19929;-83
2021/08/06 04:30:03;;;;;;;;;;;23.00;72.40;;;;;;5164830;28;19930;-84
2021/08/06 04:32:35;;;;;;;;;;;22.90;72.50;;;;;;5184323;28;20285;-83
2021/08/06 04:35:08;;;;;;;;;;;22.90;72.40;;;;;;5148460;28;20397;-84
2021/08/06 04:37:47;;;;;;;;;;;22.90;72.40;;;;;;5169736;28;20371;-84
2021/08/06 04:40:21;;;;;;;;;;;23.00;72.40;;;;;;5200163;28;20120;-85
2021/08/06 04:42:54;;;;;;;;;;;23.00;72.30;;;;;;5182234;28;19941;-84
2021/08/06 04:45:27;;;;;;;;;;;22.90;72.30;;;;;;5196216;28;20294;-84
2021/08/06 04:48:03;;;;;;;;;;;23.00;72.30;;;;;;4932098;28;10000241;-85
2021/08/06 04:50:40;;;;;;;;;;;22.90;72.20;;;;;;4851351;28;10000694;-84
2021/08/06 04:53:13;;;;;;;;;;;22.90;72.20;;;;;;5181686;28;20307;-84
2021/08/06 04:55:45;;;;;;;;;;;22.90;72.10;;;;;;5196948;28;19933;-85
2021/08/06 04:58:17;;;;;;;;;;;23.00;72.10;;;;;;5197202;28;19930;-86
2021/08/06 05:00:50;;;;;;;;;;;22.90;72.10;;;;;;5178574;28;19929;-85
2021/08/06 05:03:26;;;;;;;;;;;22.90;72.10;;;;;;5186295;28;19936;-84
2021/08/06 05:06:00;;;;;;;;;;;23.00;72.10;;;;;;5202267;28;19928;-84
2021/08/06 05:08:33;;;;;;;;;;;22.90;72.00;;;;;;5198723;28;19938;-85
2021/08/06 05:11:05;;;;;;;;;;;23.00;72.10;;;;;;5185915;28;20081;-84
2021/08/06 05:13:37;;;;;;;;;;;23.00;72.10;;;;;;5182497;28;19937;-84
2021/08/06 05:16:10;;;;;;;;;;;22.90;72.00;;;;;;5185887;28;19929;-84
2021/08/06 05:18:43;;;;;;;;;;;22.90;72.00;;;;;;5186051;28;19925;-86
2021/08/06 05:21:15;;;;;;;;;;;22.90;72.00;;;;;;5182555;28;19940;-85
2021/08/06 05:23:50;;;;;;;;;;;22.90;72.00;;;;;;5191069;28;19930;-85
2021/08/06 05:26:23;;;;;;;;;;;23.00;72.10;;;;;;5150587;28;19933;-83
2021/08/06 05:28:56;;;;;;;;;;;22.90;72.00;;;;;;5185437;28;20458;-85
2021/08/06 05:31:29;;;;;;;;;;;23.00;72.10;;;;;;5184807;28;19930;-85
2021/08/06 05:34:01;;;;;;;;;;;22.90;72.00;;;;;;5170834;28;19938;-84
2021/08/06 05:36:33;;;;;;;;;;;22.90;72.00;;;;;;5200119;28;20306;-85
2021/08/06 05:39:06;;;;;;;;;;;23.00;72.10;;;;;;5184630;28;19941;-84
2021/08/06 05:41:38;;;;;;;;;;;22.90;72.00;;;;;;5185407;28;19933;-84
2021/08/06 05:44:14;;;;;;;;;;;22.90;72.10;;;;;;5179736;28;19936;-83
2021/08/06 05:46:47;;;;;;;;;;;22.90;72.10;;;;;;5165813;28;19972;-84
2021/08/06 05:49:20;;;;;;;;;;;23.00;72.10;;;;;;5190163;28;19948;-84
2021/08/06 05:51:53;;;;;;;;;;;22.90;72.10;;;;;;5183539;28;20363;-85
2021/08/06 05:54:25;;;;;;;;;;;22.90;72.10;;;;;;5179258;28;19944;-86
2021/08/06 05:56:59;;;;;;;;;;;22.90;72.10;;;;;;5200950;28;20434;-84
2021/08/06 05:59:32;;;;;;;;;;;22.90;72.10;;;;;;5181119;28;19936;-84
2021/08/06 06:02:04;;;;;;;;;;;23.00;72.20;;;;;;5180935;28;19936;-85
2021/08/06 06:04:48;;;;;;;;;;;22.90;72.10;;;;;;5175770;28;19929;-84
2021/08/06 06:07:23;;;;;;;;;;;22.90;72.10;;;;;;5198167;28;19935;-85
2021/08/06 06:09:56;;;;;;;;;;;23.00;72.10;;;;;;5182524;28;19933;-84
2021/08/06 06:12:28;;;;;;;;;;;23.00;72.10;;;;;;5184811;28;19972;-84
2021/08/06 06:15:04;;;;;;;;;;;23.00;72.10;;;;;;5182011;28;20342;-84
2021/08/06 06:17:37;;;;;;;;;;;22.90;72.00;;;;;;5183319;28;19929;-85
2021/08/06 06:20:10;;;;;;;;;;;23.00;72.10;;;;;;5177387;28;19926;-84
2021/08/06 06:22:42;;;;;;;;;;;23.00;72.20;;;;;;5184779;28;19925;-84
2021/08/06 06:25:15;;;;;;;;;;;23.00;72.10;;;;;;5180331;28;19933;-84
2021/08/06 06:27:52;;;;;;;;;;;23.00;72.10;;;;;;5171600;28;19929;-84
2021/08/06 06:30:27;;;;;;;;;;;23.00;72.10;;;;;;5174385;28;19944;-84
2021/08/06 06:33:03;;;;;;;;;;;23.00;72.10;;;;;;5184107;28;19937;-84
2021/08/06 06:35:36;;;;;;;;;;;23.00;72.10;;;;;;5173030;28;20302;-86
2021/08/06 06:38:10;;;;;;;;;;;23.00;72.00;;;;;;5172773;28;19925;-84
2021/08/06 06:40:42;;;;;;;;;;;23.00;72.00;;;;;;5174413;28;19932;-84
2021/08/06 06:43:24;;;;;;;;;;;23.00;72.10;;;;;;5170837;28;19937;-85
2021/08/06 06:45:57;;;;;;;;;;;23.00;72.00;;;;;;5170262;28;20208;-85
2021/08/06 06:48:30;;;;;;;;;;;23.00;72.10;;;;;;5190242;28;19933;-86
2021/08/06 06:51:03;;;;;;;;;;;23.00;72.10;;;;;;5182102;28;19937;-84
2021/08/06 06:53:37;;;;;;;;;;;23.00;72.10;;;;;;5203616;28;19936;-85
2021/08/06 06:56:10;;;;;;;;;;;23.00;72.30;;;;;;5192610;28;19936;-85
2021/08/06 06:58:42;;;;;;;;;;;23.00;72.30;;;;;;5185743;28;20311;-84
2021/08/06 07:01:14;;;;;;;;;;;23.00;72.20;;;;;;5186640;28;19936;-84
2021/08/06 07:03:47;;;;;;;;;;;23.00;72.30;;;;;;5185638;28;20368;-84
2021/08/06 07:06:25;;;;;;;;;;;23.10;72.40;;;;;;5164622;28;20375;-84
2021/08/06 07:08:58;;;;;;;;;;;23.10;72.50;;;;;;5179769;28;19929;-84
2021/08/06 07:11:31;;;;;;;;;;;23.10;72.50;;;;;;5185583;28;19933;-85
2021/08/06 07:14:04;;;;;;;;;;;23.00;72.60;;;;;;5185988;28;19929;-85
2021/08/06 07:16:36;;;;;;;;;;;23.00;72.70;;;;;;5203394;28;19934;-86
2021/08/06 07:19:09;;;;;;;;;;;23.10;72.80;;;;;;5151523;28;25356;-87
2021/08/06 07:21:46;;;;;;;;;;;23.00;72.80;;;;;;5183646;28;19925;-85
2021/08/06 07:24:18;;;;;;;;;;;23.00;72.90;;;;;;5164535;28;19940;-85
2021/08/06 07:26:51;;;;;;;;;;;23.00;73.10;;;;;;5183272;28;19933;-86
2021/08/06 07:29:23;;;;;;;;;;;23.10;73.10;;;;;;5150956;28;20384;-86
2021/08/06 07:31:55;;;;;;;;;;;23.10;73.10;;;;;;5195610;28;19932;-86
2021/08/06 07:34:28;;;;;;;;;;;23.10;73.10;;;;;;5178117;28;19933;-86
2021/08/06 07:37:00;;;;;;;;;;;23.10;73.10;;;;;;5183391;28;19933;-84
2021/08/06 07:39:33;;;;;;;;;;;23.10;73.50;;;;;;5196051;28;19934;-85
2021/08/06 07:42:06;;;;;;;;;;;23.10;73.20;;;;;;4155047;28;10000179;-85
2021/08/06 07:44:38;;;;;;;;;;;23.20;73.10;;;;;;5177721;28;19929;-84
2021/08/06 07:47:11;;;;;;;;;;;23.20;73.40;;;;;;5186716;28;19933;-85
2021/08/06 07:49:47;;;;;;;;;;;23.20;73.40;;;;;;5186785;28;19933;-85
2021/08/06 07:52:20;;;;;;;;;;;23.20;73.80;;;;;;5176801;28;19926;-84
2021/08/06 07:54:52;;;;;;;;;;;23.10;74.10;;;;;;5166966;28;19929;-85
2021/08/06 07:57:25;;;;;;;;;;;23.20;74.10;;;;;;5157665;28;19936;-85
2021/08/06 07:59:58;;;;;;;;;;;23.20;74.00;;;;;;5185799;28;20318;-84
2021/08/06 08:02:32;;;;;;;;;;;23.20;73.90;;;;;;5184470;28;19940;-85
2021/08/06 08:05:05;;;;;;;;;;;23.10;73.70;;;;;;5182979;28;20184;-84
2021/08/06 08:07:37;;;;;;;;;;;23.10;73.70;;;;;;5170379;28;20416;-84
2021/08/06 08:10:10;;;;;;;;;;;23.20;73.60;;;;;;5186057;28;20481;-84
2021/08/06 08:12:43;;;;;;;;;;;23.10;73.50;;;;;;5162288;28;19926;-85
2021/08/06 08:15:15;;;;;;;;;;;23.20;73.60;;;;;;5172994;28;19933;-84
2021/08/06 08:17:48;;;;;;;;;;;23.10;73.50;;;;;;5181592;28;19941;-84
2021/08/06 08:20:21;;;;;;;;;;;23.10;73.70;;;;;;5199386;28;19925;-85
2021/08/06 08:22:53;;;;;;;;;;;23.20;73.70;;;;;;5190337;28;19929;-84
2021/08/06 08:25:26;;;;;;;;;;;23.20;73.70;;;;;;5202411;28;19925;-85
2021/08/06 08:27:58;;;;;;;;;;;23.10;73.60;;;;;;5187075;28;19925;-85
2021/08/06 08:30:31;;;;;;;;;;;23.20;73.60;;;;;;5170590;28;19926;-85
2021/08/06 08:33:07;;;;;;;;;;;23.20;73.60;;;;;;5169526;28;20168;-85
2021/08/06 08:35:39;;;;;;;;;;;23.20;73.50;;;;;;5155784;28;19929;-85
2021/08/06 08:38:12;;;;;;;;;;;23.20;73.50;;;;;;5172561;28;19929;-84
2021/08/06 08:40:45;;;;;;;;;;;23.20;73.50;;;;;;5174429;28;19936;-85
2021/08/06 08:43:17;;;;;;;;;;;23.20;73.40;;;;;;5206244;28;19929;-85
2021/08/06 08:45:50;;;;;;;;;;;23.20;73.40;;;;;;5175003;28;19926;-85
2021/08/06 08:48:23;;;;;;;;;;;23.20;73.40;;;;;;5172088;28;19934;-85
2021/08/06 08:50:56;;;;;;;;;;;23.20;73.40;;;;;;5175544;28;19933;-84
2021/08/06 08:53:31;;;;;;;;;;;23.20;73.40;;;;;;5190123;28;19926;-84
2021/08/06 08:56:03;;;;;;;;;;;23.20;73.40;;;;;;5189845;28;19937;-85
2021/08/06 08:58:37;;;;;;;;;;;23.20;73.30;;;;;;5191647;28;20391;-85
2021/08/06 09:01:10;;;;;;;;;;;23.10;73.30;;;;;;5206168;28;19925;-85
2021/08/06 09:03:46;;;;;;;;;;;23.20;73.30;;;;;;5206427;28;19947;-84
2021/08/06 09:06:41;;;;;;;;;;;23.20;73.30;;;;;;5176448;28;19936;-85
2021/08/06 09:09:43;;;;;;;;;;;23.20;73.30;;;;;;5161790;28;19929;-84
2021/08/06 09:12:15;;;;;;;;;;;23.20;73.30;;;;;;5190507;28;19926;-83
2021/08/06 09:14:53;;;;;;;;;;;23.20;73.30;;;;;;5190324;28;19926;-84
2021/08/06 09:17:26;;;;;;;;;;;23.20;73.30;;;;;;5190687;28;19932;-84
2021/08/06 09:20:00;;;;;;;;;;;23.20;73.30;;;;;;5174679;28;19925;-84
2021/08/06 09:22:42;;;;;;;;;;;23.20;73.30;;;;;;5173134;28;19930;-84
2021/08/06 09:25:17;;;;;;;;;;;23.20;73.20;;;;;;5191777;28;19934;-84
2021/08/06 09:28:01;;;;;;;;;;;23.20;73.30;;;;;;5180390;28;19936;-84
2021/08/06 09:30:38;;;;;;;;;;;23.20;73.20;;;;;;5206224;28;20410;-84
2021/08/06 09:33:11;;;;;;;;;;;23.20;73.20;;;;;;5205336;28;19936;-85
2021/08/06 09:35:43;;;;;;;;;;;23.20;73.20;;;;;;5192858;28;20493;-83
2021/08/06 09:38:19;;;;;;;;;;;23.20;73.20;;;;;;5190237;28;19925;-85
2021/08/06 09:40:51;;;;;;;;;;;23.20;73.20;;;;;;5192995;28;20338;-85
2021/08/06 09:43:24;;;;;;;;;;;23.20;73.20;;;;;;5194125;28;19932;-84
2021/08/06 09:45:56;;;;;;;;;;;23.20;73.20;;;;;;5192399;28;19933;-84
2021/08/06 09:48:29;;;;;;;;;;;23.20;73.10;;;;;;5206851;28;20470;-84
2021/08/06 09:51:01;;;;;;;;;;;23.20;73.10;;;;;;5156594;28;19929;-84
2021/08/06 09:53:35;;;;;;;;;;;23.20;73.10;;;;;;5175294;28;19929;-85
2021/08/06 09:56:14;;;;;;;;;;;23.20;73.10;;;;;;5205611;28;20291;-84
2021/08/06 09:58:59;;;;;;;;;;;23.20;73.10;;;;;;5177890;28;19925;-84
2021/08/06 10:01:31;;;;;;;;;;;23.20;73.10;;;;;;5189121;28;20340;-84
2021/08/06 10:04:11;;;;;;;;;;;23.20;73.00;;;;;;5189587;28;19937;-84
2021/08/06 10:06:59;;;;;;;;;;;23.20;73.00;;;;;;5204855;28;19932;-85
2021/08/06 10:09:31;;;;;;;;;;;23.20;73.00;;;;;;5193267;28;19932;-85
2021/08/06 10:12:04;;;;;;;;;;;23.20;73.00;;;;;;5189364;28;20334;-85
2021/08/06 10:14:36;;;;;;;;;;;23.20;72.90;;;;;;5192342;28;20383;-84
2021/08/06 10:17:09;;;;;;;;;;;23.20;72.90;;;;;;5190048;28;19925;-84
2021/08/06 10:19:42;;;;;;;;;;;23.20;72.90;;;;;;5176917;28;19929;-86
2021/08/06 10:22:15;;;;;;;;;;;23.30;72.90;;;;;;5161561;28;19932;-85
2021/08/06 10:24:49;;;;;;;;;;;23.30;72.90;;;;;;5189789;28;19925;-85
2021/08/06 10:27:23;;;;;;;;;;;23.30;72.80;;;;;;5173455;28;19935;-85
2021/08/06 10:29:55;;;;;;;;;;;23.30;72.80;;;;;;5191199;28;19932;-87
2021/08/06 10:32:28;;;;;;;;;;;23.30;72.80;;;;;;5189355;28;19930;-85
2021/08/06 10:35:09;;;;;;;;;;;23.30;72.80;;;;;;5188409;28;19929;-86
2021/08/06 10:37:55;;;;;;;;;;;23.30;72.80;;;;;;5175514;28;20279;-86
2021/08/06 10:40:33;;;;;;;;;;;23.30;72.70;;;;;;5206146;28;19929;-86
2021/08/06 10:43:09;;;;;;;;;;;23.30;72.80;;;;;;5177606;28;20322;-86
2021/08/06 10:45:46;;;;;;;;;;;23.30;72.70;;;;;;5189112;28;19929;-86
2021/08/06 10:48:26;;;;;;;;;;;23.30;72.70;;;;;;5159519;28;19936;-85
2021/08/06 10:51:17;;;;;;;;;;;23.30;72.70;;;;;;5185883;28;20302;-86
2021/08/06 10:53:59;;;;;;;;;;;23.30;72.70;;;;;;5153518;28;19934;-86
2021/08/06 10:56:32;;;;;;;;;;;23.30;72.60;;;;;;5182119;28;19930;-87
2021/08/06 10:59:10;;;;;;;;;;;23.30;72.60;;;;;;5166932;28;19944;-85
2021/08/06 11:01:48;;;;;;;;;;;23.30;72.60;;;;;;5201089;28;19926;-85
2021/08/06 11:04:21;;;;;;;;;;;23.40;72.60;;;;;;5183082;28;19953;-88
2021/08/06 11:06:54;;;;;;;;;;;23.40;72.60;;;;;;5141342;28;20295;-87
2021/08/06 11:09:32;;;;;;;;;;;23.30;72.50;;;;;;5034334;28;9999639;-87
2021/08/06 11:12:06;;;;;;;;;;;23.30;72.50;;;;;;4837219;28;10000431;-86
2021/08/06 11:14:38;;;;;;;;;;;23.40;72.80;;;;;;5186189;28;20315;-88
2021/08/06 11:17:17;;;;;;;;;;;23.30;72.70;;;;;;5165446;28;19930;-87
2021/08/06 11:19:53;;;;;;;;;;;23.40;72.70;;;;;;5184101;28;19956;-87
2021/08/06 11:22:36;;;;;;;;;;;23.40;72.70;;;;;;5181127;28;19929;-87
2021/08/06 11:25:11;;;;;;;;;;;23.30;72.70;;;;;;5156529;28;19929;-86
2021/08/06 11:27:46;;;;;;;;;;;23.40;72.70;;;;;;5161484;28;19936;-86
2021/08/06 11:30:20;;;;;;;;;;;23.40;72.70;;;;;;5184669;28;19930;-87
2021/08/06 11:32:56;;;;;;;;;;;23.40;72.70;;;;;;5186336;28;20291;-86
2021/08/06 11:35:31;;;;;;;;;;;23.40;72.70;;;;;;5184562;28;20250;-86
2021/08/06 11:38:09;;;;;;;;;;;23.40;72.70;;;;;;5185144;28;19932;-86
2021/08/06 11:40:45;;;;;;;;;;;23.40;72.70;;;;;;5189516;28;19953;-87
2021/08/06 11:43:19;;;;;;;;;;;23.40;72.60;;;;;;5198607;28;19933;-85
2021/08/06 11:45:53;;;;;;;;;;;23.40;72.60;;;;;;5184033;28;20417;-87
2021/08/06 11:48:25;;;;;;;;;;;23.40;72.50;;;;;;5198455;28;19929;-86
2021/08/06 11:50:58;;;;;;;;;;;23.40;72.50;;;;;;5150445;28;19929;-86
2021/08/06 11:53:30;;;;;;;;;;;23.40;72.60;;;;;;5183521;28;19937;-87
2021/08/06 11:56:11;;;;;;;;;;;23.40;73.00;;;;;;5168415;28;19937;-87
2021/08/06 11:58:44;;;;;;;;;;;23.40;72.50;;;;;;5196895;28;19956;-85
2021/08/06 12:01:18;;;;;;;;;;;23.40;72.50;;;;;;5184251;28;19929;-87
2021/08/06 12:03:52;;;;;;;;;;;23.40;72.50;;;;;;5183814;28;19929;-88
2021/08/06 12:06:24;;;;;;;;;;;23.40;72.50;;;;;;5184619;28;20326;-88
2021/08/06 12:08:59;;;;;;;;;;;23.40;72.40;;;;;;5197713;28;19957;-87
2021/08/06 12:11:41;;;;;;;;;;;23.40;72.40;;;;;;5193571;28;19929;-87
2021/08/06 12:14:25;;;;;;;;;;;23.40;72.40;;;;;;5170033;28;19936;-87
2021/08/06 12:16:57;;;;;;;;;;;23.40;72.50;;;;;;5172303;28;19933;-86
2021/08/06 12:19:30;;;;;;;;;;;23.40;72.40;;;;;;5189859;28;20434;-88
2021/08/06 12:22:02;;;;;;;;;;;23.40;72.40;;;;;;5187153;28;20299;-88
2021/08/06 12:24:36;;;;;;;;;;;23.50;72.50;;;;;;5170819;28;19929;-87
2021/08/06 12:27:08;;;;;;;;;;;23.50;72.40;;;;;;5190720;28;19925;-86
2021/08/06 12:29:40;;;;;;;;;;;23.50;72.30;;;;;;5168187;28;19929;-88
2021/08/06 12:32:14;;;;;;;;;;;23.50;72.40;;;;;;5183867;28;20180;-87
2021/08/06 12:34:47;;;;;;;;;;;23.50;72.40;;;;;;5173645;28;19936;-87
2021/08/06 12:37:20;;;;;;;;;;;23.50;72.30;;;;;;5169828;28;19940;-89
2021/08/06 12:39:53;;;;;;;;;;;23.50;72.30;;;;;;5190459;28;19936;-88
2021/08/06 12:42:30;;;;;;;;;;;23.50;72.30;;;;;;5159216;28;19929;-88
2021/08/06 12:45:03;;;;;;;;;;;23.50;72.20;;;;;;5169036;28;19940;-86
2021/08/06 12:47:48;;;;;;;;;;;23.50;72.20;;;;;;5201199;28;19929;-87
2021/08/06 12:50:20;;;;;;;;;;;23.50;72.20;;;;;;5203119;28;20403;-86
2021/08/06 12:52:59;;;;;;;;;;;23.50;72.20;;;;;;5186299;28;19944;-86
2021/08/06 12:55:32;;;;;;;;;;;23.60;72.20;;;;;;5171776;28;19929;-87
2021/08/06 12:58:11;;;;;;;;;;;23.60;72.20;;;;;;5203090;28;20394;-87
2021/08/06 13:00:48;;;;;;;;;;;23.60;72.20;;;;;;5183917;28;19929;-87
2021/08/06 13:03:21;;;;;;;;;;;23.60;72.20;;;;;;5171786;28;19929;-86
2021/08/06 13:05:58;;;;;;;;;;;23.60;72.20;;;;;;5184459;28;20299;-86
2021/08/06 13:08:39;;;;;;;;;;;23.60;72.30;;;;;;5157151;28;20338;-85
2021/08/06 13:11:13;;;;;;;;;;;23.60;72.30;;;;;;5184580;28;20377;-88
2021/08/06 13:13:47;;;;;;;;;;;23.60;72.30;;;;;;5185257;28;19933;-87
2021/08/06 13:16:25;;;;;;;;;;;23.60;72.20;;;;;;5170219;28;19925;-88
2021/08/06 13:18:58;;;;;;;;;;;23.60;72.20;;;;;;5186997;28;19929;-87
2021/08/06 13:21:30;;;;;;;;;;;23.60;72.20;;;;;;5170507;28;19948;-87
2021/08/06 13:24:03;;;;;;;;;;;23.60;72.10;;;;;;5169210;28;20395;-85
2021/08/06 13:26:35;;;;;;;;;;;23.60;72.00;;;;;;5186902;28;19930;-85
2021/08/06 13:29:07;;;;;;;;;;;23.60;71.90;;;;;;5167085;28;19930;-86
2021/08/06 13:31:40;;;;;;;;;;;23.60;71.90;;;;;;5185401;28;19936;-86
2021/08/06 13:34:12;;;;;;;;;;;23.60;71.90;;;;;;5169077;28;19929;-86
2021/08/06 13:36:44;;;;;;;;;;;23.60;71.80;;;;;;5182408;28;20389;-85
2021/08/06 13:39:17;;;;;;;;;;;23.60;71.80;;;;;;5166770;28;19940;-88
2021/08/06 13:41:49;;;;;;;;;;;23.60;71.70;;;;;;5184341;28;19925;-88
2021/08/06 13:44:21;;;;;;;;;;;23.60;71.70;;;;;;5182701;28;19936;-88
2021/08/06 13:46:54;;;;;;;;;;;23.60;71.60;;;;;;5167816;28;19936;-87
2021/08/06 13:49:26;;;;;;;;;;;23.60;71.60;;;;;;5186873;28;19930;-88
2021/08/06 13:51:59;;;;;;;;;;;23.60;71.60;;;;;;5201126;28;19929;-88
2021/08/06 13:54:31;;;;;;;;;;;23.60;71.60;;;;;;5184762;28;19941;-88
2021/08/06 13:57:04;;;;;;;;;;;23.60;71.50;;;;;;5184497;28;20179;-87
2021/08/06 13:59:36;;;;;;;;;;;23.60;71.60;;;;;;5180762;28;20300;-89
2021/08/06 14:02:08;;;;;;;;;;;23.60;71.50;;;;;;5168958;28;19930;-89
2021/08/06 14:04:40;;;;;;;;;;;23.60;71.50;;;;;;5164237;28;19940;-86
2021/08/06 14:07:16;;;;;;;;;;;23.60;71.50;;;;;;5201284;28;19952;-88
2021/08/06 14:09:49;;;;;;;;;;;23.60;71.50;;;;;;5218492;28;19937;-88
2021/08/06 14:12:21;;;;;;;;;;;23.70;71.50;;;;;;5170806;28;19940;-88
2021/08/06 14:14:54;;;;;;;;;;;23.60;71.50;;;;;;5185056;28;19937;-88
2021/08/06 14:17:26;;;;;;;;;;;23.70;71.50;;;;;;5198866;28;20287;-87
2021/08/06 14:19:59;;;;;;;;;;;23.60;71.40;;;;;;5168681;28;19925;-87
2021/08/06 14:22:31;;;;;;;;;;;23.60;71.40;;;;;;5182599;28;20159;-88
2021/08/06 14:25:03;;;;;;;;;;;23.70;71.50;;;;;;5171302;28;19929;-88
2021/08/06 14:27:36;;;;;;;;;;;23.70;71.50;;;;;;5180886;28;19925;-87
2021/08/06 14:30:08;;;;;;;;;;;23.70;71.50;;;;;;5183637;28;19929;-87
2021/08/06 14:32:40;;;;;;;;;;;23.70;71.50;;;;;;5198398;28;19929;-88
2021/08/06 14:35:13;;;;;;;;;;;23.70;71.50;;;;;;5181993;28;19929;-87
2021/08/06 14:37:45;;;;;;;;;;;23.70;71.50;;;;;;5185731;28;19925;-89
2021/08/06 14:40:18;;;;;;;;;;;23.70;71.50;;;;;;5182239;28;19972;-88
2021/08/06 14:42:51;;;;;;;;;;;23.70;71.50;;;;;;5184291;28;20731;-86
2021/08/06 14:45:23;;;;;;;;;;;23.70;71.60;;;;;;5185110;28;20271;-88
2021/08/06 14:47:55;;;;;;;;;;;23.70;71.60;;;;;;5167855;28;20401;-87
2021/08/06 14:50:28;;;;;;;;;;;23.70;71.60;;;;;;5180035;28;19930;-87
2021/08/06 14:53:00;;;;;;;;;;;23.70;71.60;;;;;;5189107;28;19928;-88
2021/08/06 14:55:32;;;;;;;;;;;23.70;71.60;;;;;;5201549;28;19930;-86
2021/08/06 14:58:05;;;;;;;;;;;23.60;71.60;;;;;;5189978;28;19929;-89